Time;durP1;ratioP1;P1;durP2;ratioP2;P2;SDS_P1;SDS_P2;PMS_P1;PMS_P2;Temp;Humidity;BMP_temperature;BMP_pressure;BME280_temperature;BME280_humidity;BME280_pressure;Samples;Min_cycle;Max_cycle;Signal;HPM_P1;HPM_P2
2024/01/13 00:01:59;;;;;;;33.67;11.80;;;;;;;-0.99;93.55;101210.50;6064747;23;20018;-87
2024/01/13 00:04:25;;;;;;;37.88;14.60;;;;;;;-0.99;93.35;101199.19;6089435;23;20026;-86
2024/01/13 00:06:53;;;;;;;44.83;14.85;;;;;;;-1.02;93.53;101201.88;6090185;23;20022;-86
2024/01/13 00:09:19;;;;;;;37.28;13.32;;;;;;;-1.00;94.19;101200.09;6041380;23;20025;-87
2024/01/13 00:11:46;;;;;;;40.10;14.98;;;;;;;-1.02;94.11;101184.47;6089987;23;20358;-86
2024/01/13 00:14:13;;;;;;;37.38;13.43;;;;;;;-1.02;94.46;101192.28;6090465;23;20018;-86
2024/01/13 00:16:40;;;;;;;36.42;13.38;;;;;;;-1.02;94.54;101192.28;6090062;23;20046;-87
2024/01/13 00:19:06;;;;;;;33.35;13.05;;;;;;;-1.02;95.00;101188.84;6088565;23;20050;-86
2024/01/13 00:21:33;;;;;;;40.28;14.38;;;;;;;-1.02;95.13;101181.00;6042479;23;20022;-87
2024/01/13 00:24:00;;;;;;;34.08;12.45;;;;;;;-1.01;95.13;101182.75;6089601;23;20101;-87
2024/01/13 00:26:27;;;;;;;34.97;13.60;;;;;;;-1.02;95.12;101178.41;6089827;23;20101;-87
2024/01/13 00:28:54;;;;;;;33.90;13.18;;;;;;;-1.01;95.45;101173.16;6042074;23;20726;-86
2024/01/13 00:31:21;;;;;;;36.47;13.35;;;;;;;-0.98;95.32;101172.25;6065425;23;20026;-86
2024/01/13 00:33:48;;;;;;;36.80;13.38;;;;;;;-1.00;95.53;101174.03;6090570;23;20025;-87
2024/01/13 00:36:15;;;;;;;35.50;12.63;;;;;;;-0.98;95.36;101177.47;6065610;23;20029;-87
2024/01/13 00:38:42;;;;;;;37.75;13.43;;;;;;;-1.01;95.61;101167.97;6089494;23;20080;-86
2024/01/13 00:41:09;;;;;;;31.33;12.35;;;;;;;-0.99;95.58;101163.59;6089921;23;20657;-87
2024/01/13 00:43:37;;;;;;;37.30;13.30;;;;;;;-0.99;95.76;101175.72;6113795;23;20033;-87
2024/01/13 00:46:04;;;;;;;39.67;14.38;;;;;;;-0.97;95.86;101166.13;6090548;23;20872;-87
2024/01/13 00:48:32;;;;;;;35.33;13.32;;;;;;;-0.97;95.81;101168.75;6089236;23;20061;-87
2024/01/13 00:51:11;;;;;;;39.83;14.23;;;;;;;-0.97;96.12;101169.59;6113705;23;20097;-87
2024/01/13 00:53:40;;;;;;;39.05;14.88;;;;;;;-0.98;96.23;101162.69;6090233;23;20018;-87
2024/01/13 00:56:08;;;;;;;35.28;13.43;;;;;;;-0.98;95.94;101156.59;6065683;23;20025;-86
2024/01/13 00:58:39;;;;;;;33.10;13.55;;;;;;;-0.97;96.20;101161.78;6089101;23;20030;-86
2024/01/13 01:01:14;;;;;;;39.13;13.23;;;;;;;-0.97;96.07;101155.72;6066158;23;20033;-87
2024/01/13 01:03:44;;;;;;;34.03;12.80;;;;;;;-0.97;96.12;101160.94;6066411;23;20477;-87
2024/01/13 01:06:11;;;;;;;35.10;14.55;;;;;;;-0.98;96.02;101156.59;6090464;23;20021;-87
2024/01/13 01:08:39;;;;;;;38.95;14.68;;;;;;;-0.98;96.17;101143.56;6065178;23;20084;-87
2024/01/13 01:11:07;;;;;;;34.92;14.00;;;;;;;-0.97;96.26;101147.88;6089577;23;20080;-86
2024/01/13 01:13:35;;;;;;;40.00;14.32;;;;;;;-0.97;96.16;101137.47;6115560;23;20018;-87
2024/01/13 01:16:02;;;;;;;36.95;14.48;;;;;;;-0.96;96.44;101149.63;6092215;23;20102;-86
2024/01/13 01:18:29;;;;;;;38.83;15.50;;;;;;;-0.97;96.24;101145.28;6089765;23;20022;-87
2024/01/13 01:21:10;;;;;;;36.00;14.98;;;;;;;-0.98;96.56;101141.81;6090301;23;20350;-87
2024/01/13 01:23:38;;;;;;;39.35;14.43;;;;;;;-0.98;96.46;101143.56;6091125;23;20096;-85
2024/01/13 01:26:05;;;;;;;38.63;14.30;;;;;;;-0.98;96.65;101148.78;6067642;23;20026;-87
2024/01/13 01:28:32;;;;;;;42.45;15.50;;;;;;;-0.98;96.53;101138.34;6089804;23;20045;-86
2024/01/13 01:31:05;;;;;;;36.90;14.02;;;;;;;-0.97;96.68;101138.31;6092025;23;20025;-87
2024/01/13 01:33:33;;;;;;;39.55;14.32;;;;;;;-0.98;96.84;101135.75;6091371;23;20024;-86
2024/01/13 01:36:00;;;;;;;45.58;15.88;;;;;;;-1.00;96.82;101140.97;6092035;23;20061;-87
2024/01/13 01:38:27;;;;;;;43.00;13.70;;;;;;;-1.00;96.75;101142.75;6090687;23;20025;-86
2024/01/13 01:41:09;;;;;;;38.25;14.40;;;;;;;-0.97;96.47;101140.91;6115707;23;20018;-86
2024/01/13 01:43:36;;;;;;;40.20;14.57;;;;;;;-0.99;96.66;101147.06;6067286;23;20021;-87
2024/01/13 01:46:04;;;;;;;42.78;15.48;;;;;;;-0.96;96.38;101136.59;6090826;23;20029;-86
2024/01/13 01:48:40;;;;;;;39.45;13.63;;;;;;;-0.98;96.84;101144.44;6114769;23;20029;-85
2024/01/13 01:51:11;;;;;;;36.35;13.65;;;;;;;-0.96;96.71;101139.19;6067989;23;20332;-87
2024/01/13 01:53:39;;;;;;;37.72;14.55;;;;;;;-0.97;96.82;101134.84;6066941;23;20386;-87
2024/01/13 01:56:11;;;;;;;40.30;14.90;;;;;;;-0.97;96.84;101134.84;6091445;23;20100;-86
2024/01/13 01:58:39;;;;;;;35.42;12.70;;;;;;;-0.95;96.75;101127.88;6066319;23;20074;-87
2024/01/13 02:01:07;;;;;;;40.05;15.13;;;;;;;-0.95;96.71;101135.69;6085566;23;20022;-87
2024/01/13 02:03:37;;;;;;;46.33;15.52;;;;;;;-0.97;96.76;101125.28;6038094;23;20022;-86
2024/01/13 02:06:05;;;;;;;35.05;14.02;;;;;;;-0.96;96.26;101116.59;6067694;23;20025;-87
2024/01/13 02:08:33;;;;;;;41.22;14.65;;;;;;;-0.96;96.31;101111.38;6114664;23;20021;-87
2024/01/13 02:11:08;;;;;;;37.90;14.30;;;;;;;-0.96;96.69;101108.75;6069687;23;20331;-85
2024/01/13 02:13:35;;;;;;;37.75;13.85;;;;;;;-0.96;96.84;101113.13;6067551;23;20025;-87
2024/01/13 02:16:03;;;;;;;38.03;14.55;;;;;;;-0.96;96.56;101105.31;6038193;23;20106;-86
2024/01/13 02:18:30;;;;;;;39.38;14.18;;;;;;;-0.96;96.72;101106.16;6061596;23;20093;-86
2024/01/13 02:21:05;;;;;;;34.80;12.77;;;;;;;-0.97;96.96;101093.13;6092684;23;20026;-87
2024/01/13 02:23:33;;;;;;;35.70;13.77;;;;;;;-0.96;96.96;101089.66;6114579;23;20628;-86
2024/01/13 02:26:00;;;;;;;41.78;14.70;;;;;;;-0.97;96.89;101090.53;6090517;23;20026;-85
2024/01/13 02:28:27;;;;;;;37.83;14.73;;;;;;;-0.99;97.21;101079.25;6090598;23;20080;-86
2024/01/13 02:31:10;;;;;;;33.57;13.80;;;;;;;-0.99;97.20;101087.09;6094256;23;20502;-86
2024/01/13 02:33:37;;;;;;;36.15;14.18;;;;;;;-0.97;97.09;101083.56;6089616;23;20029;-86
2024/01/13 02:36:05;;;;;;;37.55;15.13;;;;;;;-0.99;96.80;101087.09;6090777;23;20085;-86
2024/01/13 02:38:32;;;;;;;38.63;14.60;;;;;;;-1.00;97.19;101078.41;6090210;23;20093;-86
2024/01/13 02:41:06;;;;;;;38.10;13.77;;;;;;;-0.99;97.13;101079.25;6113974;23;20494;-86
2024/01/13 02:43:35;;;;;;;34.90;13.15;;;;;;;-0.98;96.97;101081.84;6114102;23;20029;-86
2024/01/13 02:46:03;;;;;;;41.60;15.10;;;;;;;-0.98;96.91;101081.84;6091609;23;20025;-86
2024/01/13 02:48:34;;;;;;;36.97;14.07;;;;;;;-0.97;96.75;101078.34;6066200;23;20046;-86
2024/01/13 02:51:09;;;;;;;35.63;13.50;;;;;;;-0.95;96.81;101081.78;6067929;23;20097;-87
2024/01/13 02:53:36;;;;;;;37.63;14.70;;;;;;;-0.96;96.72;101084.44;6113788;23;20029;-87
2024/01/13 02:56:04;;;;;;;38.85;14.43;;;;;;;-0.96;96.64;101084.44;6063546;23;20015;-87
2024/01/13 02:58:30;;;;;;;35.05;13.63;;;;;;;-0.97;96.44;101078.34;6086807;23;20044;-86
2024/01/13 03:01:09;;;;;;;36.40;13.65;;;;;;;-0.95;96.37;101075.72;6039605;23;20022;-86
2024/01/13 03:03:37;;;;;;;34.33;13.40;;;;;;;-0.96;96.49;101082.69;6087637;23;20100;-87
2024/01/13 03:06:05;;;;;;;38.35;14.02;;;;;;;-0.96;96.60;101079.22;6090871;23;20026;-86
2024/01/13 03:08:32;;;;;;;39.13;13.23;;;;;;;-0.97;96.49;101070.53;6089946;23;20025;-87
2024/01/13 03:11:11;;;;;;;36.40;14.27;;;;;;;-0.96;96.39;101074.00;6089607;23;20100;-87
2024/01/13 03:13:39;;;;;;;34.85;14.25;;;;;;;-0.96;96.36;101074.88;6089913;23;20084;-85
2024/01/13 03:16:06;;;;;;;37.72;15.20;;;;;;;-0.95;96.20;101073.97;6091006;23;20025;-86
2024/01/13 03:18:33;;;;;;;37.88;14.75;;;;;;;-0.98;96.60;101061.00;6088787;23;20041;-86
2024/01/13 03:21:08;;;;;;;40.17;15.57;;;;;;;-0.94;96.55;101053.97;6091181;23;20100;-87
2024/01/13 03:23:35;;;;;;;39.08;14.20;;;;;;;-0.96;96.49;101053.16;6089979;23;20351;-86
2024/01/13 03:26:02;;;;;;;39.60;14.90;;;;;;;-0.93;96.05;101050.47;6090335;23;20732;-86
2024/01/13 03:28:29;;;;;;;41.40;15.07;;;;;;;-0.95;96.15;101047.03;6089011;23;20013;-86
2024/01/13 03:31:08;;;;;;;39.03;14.18;;;;;;;-0.94;96.10;101048.75;6092226;23;20102;-86
2024/01/13 03:33:35;;;;;;;35.25;13.15;;;;;;;-0.94;96.03;101046.13;6114311;23;20517;-86
2024/01/13 03:36:03;;;;;;;47.00;15.00;;;;;;;-0.93;96.03;101047.88;6066839;23;20028;-87
2024/01/13 03:38:30;;;;;;;42.45;14.95;;;;;;;-0.93;95.74;101037.44;6039838;23;20022;-86
2024/01/13 03:41:07;;;;;;;43.20;14.95;;;;;;;-0.93;95.91;101035.69;6069895;23;20102;-86
2024/01/13 03:43:34;;;;;;;42.80;14.77;;;;;;;-0.92;95.84;101033.94;6090313;23;20073;-86
2024/01/13 03:46:02;;;;;;;43.83;15.15;;;;;;;-0.91;95.60;101036.50;6089522;23;20112;-86
2024/01/13 03:48:29;;;;;;;46.28;16.25;;;;;;;-0.91;95.52;101026.09;6088662;23;20474;-86
2024/01/13 03:50:56;;;;;;;42.88;14.85;;;;;;;-0.91;95.43;101031.31;6114112;23;20053;-86
2024/01/13 03:53:23;;;;;;;35.25;13.90;;;;;;;-0.91;95.29;101026.09;6066617;23;20395;-86
2024/01/13 03:55:50;;;;;;;44.05;16.25;;;;;;;-0.90;95.44;101032.16;6114191;23;20018;-86
2024/01/13 03:58:16;;;;;;;41.33;14.70;;;;;;;-0.90;95.28;101025.19;6090078;23;20029;-86
2024/01/13 04:00:43;;;;;;;44.08;14.98;;;;;;;-0.88;95.44;101038.19;6065665;23;20025;-87
2024/01/13 04:03:10;;;;;;;42.75;15.52;;;;;;;-0.89;95.21;101028.63;6090264;23;20022;-86
2024/01/13 04:05:37;;;;;;;42.50;14.27;;;;;;;-0.89;95.25;101031.25;6065702;23;20022;-87
2024/01/13 04:08:04;;;;;;;41.03;14.35;;;;;;;-0.88;95.31;101027.75;6065882;23;20112;-86
2024/01/13 04:10:31;;;;;;;39.03;14.13;;;;;;;-0.89;95.16;101021.69;6065545;23;20026;-86
2024/01/13 04:12:59;;;;;;;39.58;15.30;;;;;;;-0.88;95.13;101028.63;6066160;23;20552;-87
2024/01/13 04:15:26;;;;;;;40.65;14.32;;;;;;;-0.89;95.14;101024.31;6088485;23;20077;-86
2024/01/13 04:17:53;;;;;;;38.30;15.60;;;;;;;-0.89;95.15;101020.81;6089667;23;20030;-87
2024/01/13 04:20:21;;;;;;;40.17;14.32;;;;;;;-0.87;95.12;101016.44;6037789;23;20014;-86
2024/01/13 04:22:48;;;;;;;38.55;14.90;;;;;;;-0.90;95.64;101012.16;6089430;23;20026;-87
2024/01/13 04:25:15;;;;;;;43.03;13.90;;;;;;;-0.89;95.56;101008.66;6088852;23;20029;-84
2024/01/13 04:27:42;;;;;;;35.60;13.43;;;;;;;-0.89;95.30;101016.50;6089990;23;20081;-86
2024/01/13 04:30:09;;;;;;;37.67;13.48;;;;;;;-0.89;95.19;101003.44;6089319;23;20029;-86
2024/01/13 04:32:36;;;;;;;39.13;13.88;;;;;;;-0.89;95.01;101002.56;6089253;23;20026;-86
2024/01/13 04:35:04;;;;;;;39.88;15.10;;;;;;;-0.88;95.12;100996.47;6090399;23;20041;-86
2024/01/13 04:37:31;;;;;;;40.08;14.00;;;;;;;-0.88;95.02;101002.53;6089887;23;20076;-86
2024/01/13 04:39:57;;;;;;;43.00;14.82;;;;;;;-0.89;94.98;100999.97;6088584;23;20053;-86
2024/01/13 04:42:24;;;;;;;37.10;13.95;;;;;;;-0.91;95.10;100997.41;6089626;23;20022;-87
2024/01/13 04:44:51;;;;;;;37.63;15.02;;;;;;;-0.91;95.27;100999.16;6114220;23;20502;-86
2024/01/13 04:47:18;;;;;;;36.22;15.02;;;;;;;-0.90;95.10;101000.88;6090442;23;20022;-86
2024/01/13 04:49:44;;;;;;;41.63;15.48;;;;;;;-0.90;94.94;100993.03;6067598;23;20085;-87
2024/01/13 04:52:14;;;;;;;42.47;14.50;;;;;;;-0.91;95.21;100988.72;6090874;23;20022;-87
2024/01/13 04:54:42;;;;;;;47.15;15.18;;;;;;;-0.89;94.74;100992.13;6087706;23;20050;-86
2024/01/13 04:57:08;;;;;;;41.05;14.30;;;;;;;-0.88;94.88;100994.72;6067705;23;20033;-85
2024/01/13 04:59:35;;;;;;;40.15;14.30;;;;;;;-0.91;95.10;100986.97;6115330;23;20014;-87
2024/01/13 05:02:02;;;;;;;45.17;14.80;;;;;;;-0.91;95.12;100997.41;6067691;23;20101;-87
2024/01/13 05:04:29;;;;;;;41.70;14.43;;;;;;;-0.93;95.30;100996.56;6091726;23;20026;-87
2024/01/13 05:06:56;;;;;;;40.88;14.38;;;;;;;-0.91;95.12;100993.94;6091871;23;20024;-86
2024/01/13 05:09:23;;;;;;;36.75;13.00;;;;;;;-0.90;95.11;100987.81;6091009;23;20036;-87
2024/01/13 05:11:50;;;;;;;41.13;13.82;;;;;;;-0.90;94.91;100987.81;6092097;23;20018;-87
2024/01/13 05:14:16;;;;;;;41.72;15.00;;;;;;;-0.89;95.19;100985.19;6090626;23;20029;-86
2024/01/13 05:16:43;;;;;;;42.00;13.82;;;;;;;-0.88;94.79;100980.84;6091607;23;20029;-86
2024/01/13 05:19:10;;;;;;;39.90;13.13;;;;;;;-0.89;94.81;100981.72;6090961;23;20010;-87
2024/01/13 05:21:37;;;;;;;36.47;12.73;;;;;;;-0.89;94.58;100981.72;6090100;23;20450;-87
2024/01/13 05:24:04;;;;;;;39.70;13.23;;;;;;;-0.88;94.98;100991.25;6067270;23;20788;-86
2024/01/13 05:26:31;;;;;;;39.45;13.35;;;;;;;-0.89;94.62;100985.19;6091894;23;20053;-86
2024/01/13 05:28:58;;;;;;;36.65;14.98;;;;;;;-0.90;94.72;100980.00;6091463;23;20030;-87
2024/01/13 05:31:25;;;;;;;35.90;13.65;;;;;;;-0.90;94.65;100980.84;6090820;23;20644;-86
2024/01/13 05:33:51;;;;;;;39.97;13.73;;;;;;;-0.88;94.50;100967.78;6091448;23;20025;-86
2024/01/13 05:36:18;;;;;;;38.50;13.60;;;;;;;-0.92;94.65;100964.38;6091701;23;20096;-86
2024/01/13 05:38:45;;;;;;;45.80;15.15;;;;;;;-0.88;94.76;100978.22;6091646;23;20022;-86
2024/01/13 05:41:12;;;;;;;40.13;13.43;;;;;;;-0.91;94.61;100981.75;6090786;23;20461;-86
2024/01/13 05:43:38;;;;;;;37.53;13.70;;;;;;;-0.89;94.59;100973.88;6090717;23;20054;-86
2024/01/13 05:46:05;;;;;;;43.10;14.32;;;;;;;-0.89;94.36;100971.28;6091372;23;20025;-86
2024/01/13 05:48:32;;;;;;;38.50;14.10;;;;;;;-0.89;94.38;100973.88;6065437;23;20093;-87
2024/01/13 05:50:59;;;;;;;34.72;12.50;;;;;;;-0.91;94.71;100973.09;6091076;23;20060;-85
2024/01/13 05:53:26;;;;;;;32.78;12.43;;;;;;;-0.94;94.99;100968.81;6091368;23;20022;-87
2024/01/13 05:55:53;;;;;;;34.88;13.68;;;;;;;-0.91;94.65;100967.88;6091258;23;20117;-88
2024/01/13 05:58:20;;;;;;;37.13;13.43;;;;;;;-0.91;94.40;100965.25;6090776;23;20190;-86
2024/01/13 06:00:47;;;;;;;36.80;13.95;;;;;;;-0.89;94.61;100971.28;6066885;23;20410;-87
2024/01/13 06:03:14;;;;;;;42.00;13.68;;;;;;;-0.90;94.51;100967.81;6090651;23;20089;-86
2024/01/13 06:05:41;;;;;;;43.20;15.05;;;;;;;-0.93;94.76;100967.91;6067066;23;20022;-86
2024/01/13 06:08:08;;;;;;;39.63;14.27;;;;;;;-0.92;94.70;100972.19;6066669;23;20100;-86
2024/01/13 06:10:34;;;;;;;38.30;14.70;;;;;;;-0.92;94.80;100969.59;6090645;23;20033;-86
2024/01/13 06:13:01;;;;;;;43.10;15.13;;;;;;;-0.91;94.75;100954.84;6091625;23;20026;-86
2024/01/13 06:15:28;;;;;;;40.83;14.52;;;;;;;-0.90;94.62;100957.38;6090680;23;20473;-86
2024/01/13 06:17:56;;;;;;;47.20;15.55;;;;;;;-0.90;94.54;100957.38;6066667;23;20061;-86
2024/01/13 06:20:23;;;;;;;41.17;16.20;;;;;;;-0.90;94.59;100959.16;6066583;23;20018;-86
2024/01/13 06:22:49;;;;;;;39.80;14.80;;;;;;;-0.91;94.63;100953.06;6067191;23;20093;-86
2024/01/13 06:25:17;;;;;;;41.15;14.93;;;;;;;-0.90;94.87;100949.56;6090091;23;20524;-86
2024/01/13 06:27:44;;;;;;;38.92;13.88;;;;;;;-0.90;94.55;100944.34;6090558;23;20402;-86
2024/01/13 06:30:12;;;;;;;38.17;14.45;;;;;;;-0.88;94.49;100950.41;6090150;23;20673;-86
2024/01/13 06:32:39;;;;;;;40.40;14.25;;;;;;;-0.88;94.32;100939.97;6114802;23;20033;-87
2024/01/13 06:35:07;;;;;;;38.13;13.35;;;;;;;-0.88;94.15;100932.16;6067105;23;20017;-87
2024/01/13 06:37:34;;;;;;;42.80;14.55;;;;;;;-0.88;94.31;100934.75;6018057;23;20028;-87
2024/01/13 06:40:01;;;;;;;39.80;15.00;;;;;;;-0.85;94.19;100919.94;6066389;23;20034;-87
2024/01/13 06:42:28;;;;;;;35.95;13.00;;;;;;;-0.83;94.10;100918.16;6067317;23;20324;-87
2024/01/13 06:44:55;;;;;;;29.77;12.73;;;;;;;-0.81;94.06;100911.16;6090149;23;20663;-87
2024/01/13 06:47:22;;;;;;;37.05;12.88;;;;;;;-0.83;93.98;100907.72;6090255;23;20018;-87
2024/01/13 06:49:49;;;;;;;34.50;12.45;;;;;;;-0.82;93.95;100907.66;6090282;23;20026;-87
2024/01/13 06:52:16;;;;;;;36.58;13.52;;;;;;;-0.80;93.50;100911.09;6089466;23;20374;-87
2024/01/13 06:54:43;;;;;;;30.17;13.32;;;;;;;-0.79;93.52;100904.13;6090029;23;20332;-86
2024/01/13 06:57:10;;;;;;;36.22;13.65;;;;;;;-0.80;93.22;100905.03;6067328;23;20028;-86
2024/01/13 06:59:37;;;;;;;36.85;14.27;;;;;;;-0.79;93.04;100917.16;6089690;23;20026;-86
2024/01/13 07:02:04;;;;;;;38.05;13.52;;;;;;;-0.82;92.96;100915.47;6089821;23;20073;-87
2024/01/13 07:04:31;;;;;;;38.05;15.15;;;;;;;-0.80;93.06;100910.25;6089545;23;20100;-87
2024/01/13 07:06:58;;;;;;;41.47;13.98;;;;;;;-0.81;93.22;100908.53;6114382;23;20046;-86
2024/01/13 07:09:24;;;;;;;46.08;16.27;;;;;;;-0.80;93.16;100910.25;6113429;23;20074;-85
2024/01/13 07:11:52;;;;;;;41.33;14.98;;;;;;;-0.80;93.10;100903.28;6066320;23;20036;-86
2024/01/13 07:14:19;;;;;;;38.33;14.55;;;;;;;-0.79;92.93;100898.91;6089757;23;20072;-86
2024/01/13 07:16:46;;;;;;;37.95;13.82;;;;;;;-0.79;92.92;100893.69;6090284;23;20048;-86
2024/01/13 07:19:13;;;;;;;40.17;14.20;;;;;;;-0.83;92.90;100898.13;6090092;23;20017;-87
2024/01/13 07:21:40;;;;;;;35.92;13.35;;;;;;;-0.80;92.61;100908.50;6090002;23;20455;-86
2024/01/13 07:24:12;;;;;;;38.03;13.15;;;;;;;-0.83;92.37;100903.34;6089772;23;20018;-86
2024/01/13 07:26:39;;;;;;;40.30;14.35;;;;;;;-0.83;92.62;100895.53;6091176;23;20116;-86
2024/01/13 07:29:06;;;;;;;36.92;14.95;;;;;;;-0.82;92.71;100899.84;6091635;23;20024;-86
2024/01/13 07:31:34;;;;;;;36.53;13.48;;;;;;;-0.79;92.54;100896.31;6116093;23;20018;-89
2024/01/13 07:34:01;;;;;;;38.53;13.85;;;;;;;-0.84;92.61;100896.44;6092089;23;20029;-87
2024/01/13 07:36:28;;;;;;;30.40;12.40;;;;;;;-0.81;92.73;100898.97;6091863;23;20022;-87
2024/01/13 07:38:55;;;;;;;35.88;12.45;;;;;;;-0.80;92.68;100902.41;6066922;23;20076;-86
2024/01/13 07:41:22;;;;;;;32.20;12.43;;;;;;;-0.81;92.58;100896.34;6114210;23;20446;-86
2024/01/13 07:43:49;;;;;;;32.33;12.68;;;;;;;-0.80;92.38;100899.81;6090201;23;20022;-86
2024/01/13 07:46:15;;;;;;;33.15;12.60;;;;;;;-0.82;92.57;100899.84;6066399;23;20032;-85
2024/01/13 07:48:42;;;;;;;33.05;12.20;;;;;;;-0.81;92.59;100903.34;6089331;23;20332;-85
2024/01/13 07:51:10;;;;;;;31.05;12.82;;;;;;;-0.81;92.51;100893.75;6090424;23;20566;-86
2024/01/13 07:53:50;;;;;;;34.40;13.85;;;;;;;-0.82;92.56;100899.84;6092779;23;20560;-85
2024/01/13 07:56:19;;;;;;;34.47;13.70;;;;;;;-0.80;92.27;100911.09;6114845;23;20085;-84
2024/01/13 07:58:46;;;;;;;36.67;13.60;;;;;;;-0.81;92.35;100913.75;6089229;23;20022;-85
2024/01/13 08:01:13;;;;;;;34.53;14.68;;;;;;;-0.81;92.13;100900.72;6091258;23;20338;-87
2024/01/13 08:03:53;;;;;;;39.40;14.50;;;;;;;-0.85;92.55;100897.31;6073589;23;20342;-86
2024/01/13 08:06:22;;;;;;;41.40;14.60;;;;;;;-0.80;92.57;100902.41;6067324;23;20044;-85
2024/01/13 08:08:50;;;;;;;37.58;14.05;;;;;;;-0.84;92.39;100906.00;6068437;23;20018;-85
2024/01/13 08:11:17;;;;;;;32.08;12.63;;;;;;;-0.80;92.25;100908.50;6091571;23;20037;-86
2024/01/13 08:14:02;;;;;;;31.13;12.15;;;;;;;-0.83;92.53;100916.38;6070558;23;20026;-86
2024/01/13 08:16:29;;;;;;;33.78;13.20;;;;;;;-0.81;92.55;100912.00;6066947;23;20033;-85
2024/01/13 08:18:57;;;;;;;34.42;13.15;;;;;;;-0.82;92.62;100910.28;6091479;23;20017;-85
2024/01/13 08:21:24;;;;;;;33.25;12.77;;;;;;;-0.79;92.19;100912.84;6066614;23;20026;-85
2024/01/13 08:24:05;;;;;;;35.88;13.80;;;;;;;-0.79;92.33;100914.56;6071374;23;20041;-85
2024/01/13 08:26:32;;;;;;;40.20;14.68;;;;;;;-0.78;92.11;100922.34;6092333;23;20026;-86
2024/01/13 08:28:59;;;;;;;36.17;15.52;;;;;;;-0.80;92.54;100918.91;6092649;23;20034;-85
2024/01/13 08:31:26;;;;;;;35.97;13.48;;;;;;;-0.78;92.04;100924.97;6093251;23;20022;-86
2024/01/13 08:34:06;;;;;;;31.88;12.82;;;;;;;-0.80;92.01;100931.97;6095794;23;20025;-86
2024/01/13 08:36:33;;;;;;;35.58;13.23;;;;;;;-0.79;92.11;100922.38;6092592;23;20390;-85
2024/01/13 08:39:00;;;;;;;35.65;13.35;;;;;;;-0.79;91.68;100923.25;6116485;23;20076;-88
2024/01/13 08:41:26;;;;;;;35.45;13.07;;;;;;;-0.77;91.82;100915.38;6117372;23;20041;-89
2024/01/13 08:44:00;;;;;;;29.67;12.98;;;;;;;-0.75;91.79;100914.44;6094365;23;20022;-89
2024/01/13 08:46:27;;;;;;;35.30;13.43;;;;;;;-0.75;91.79;100917.06;6091967;23;20442;-87
2024/01/13 08:48:55;;;;;;;36.85;14.23;;;;;;;-0.72;91.80;100926.56;6092329;23;20749;-85
2024/01/13 08:51:23;;;;;;;33.85;13.32;;;;;;;-0.74;91.82;100934.44;6117073;23;20022;-86
2024/01/13 08:54:02;;;;;;;30.83;13.85;;;;;;;-0.72;91.45;100940.44;6117912;23;20030;-86
2024/01/13 08:56:29;;;;;;;32.03;12.07;;;;;;;-0.73;91.40;100935.28;6042350;23;20026;-86
2024/01/13 08:58:56;;;;;;;31.73;13.73;;;;;;;-0.68;91.21;100934.28;6065463;23;20025;-87
2024/01/13 09:01:23;;;;;;;32.75;12.75;;;;;;;-0.67;91.15;100930.75;6044711;23;20026;-87
2024/01/13 09:04:03;;;;;;;33.80;12.73;;;;;;;-0.66;91.18;100918.59;6095660;23;20022;-86
2024/01/13 09:06:29;;;;;;;34.15;14.65;;;;;;;-0.64;91.24;100908.13;6069187;23;20049;-86
2024/01/13 09:08:56;;;;;;;36.20;14.45;;;;;;;-0.62;91.14;100911.53;6093229;23;21362;-87
2024/01/13 09:11:23;;;;;;;39.38;16.42;;;;;;;-0.58;91.22;100928.84;6069589;23;20391;-87
2024/01/13 09:14:05;;;;;;;34.45;14.45;;;;;;;-0.61;90.97;100916.72;6096218;23;20065;-85
2024/01/13 09:16:32;;;;;;;41.60;16.38;;;;;;;-0.61;91.33;100911.53;6092860;23;20451;-87
2024/01/13 09:18:58;;;;;;;39.85;16.88;;;;;;;-0.61;91.18;100908.03;6069935;23;20391;-86
2024/01/13 09:21:25;;;;;;;38.17;15.50;;;;;;;-0.61;91.34;100905.41;6069679;23;20025;-86
2024/01/13 09:24:06;;;;;;;44.75;16.33;;;;;;;-0.60;91.25;100889.75;6027990;23;20791;-86
2024/01/13 09:26:33;;;;;;;36.42;15.98;;;;;;;-0.58;91.18;100890.56;6090802;23;20081;-85
2024/01/13 09:29:02;;;;;;;35.17;13.05;;;;;;;-0.56;91.08;100887.91;6093584;23;20056;-86
2024/01/13 09:31:29;;;;;;;33.72;13.65;;;;;;;-0.55;90.90;100889.63;6063746;23;20443;-85
2024/01/13 09:34:07;;;;;;;36.30;13.77;;;;;;;-0.53;90.86;100891.31;6070942;23;20025;-85
2024/01/13 09:36:36;;;;;;;34.55;13.75;;;;;;;-0.50;90.93;100885.16;6069555;23;20089;-85
2024/01/13 09:39:03;;;;;;;29.92;12.73;;;;;;;-0.49;90.81;100887.69;6091778;23;20026;-87
2024/01/13 09:41:30;;;;;;;31.10;12.40;;;;;;;-0.51;90.73;100891.25;6066544;23;20025;-83
2024/01/13 09:44:25;;;;;;;36.85;15.30;;;;;;;-0.53;90.60;100912.19;6070932;23;20024;-86
2024/01/13 09:46:55;;;;;;;28.40;13.00;;;;;;;-0.49;90.71;100908.56;6069504;23;20464;-85
2024/01/13 09:49:26;;;;;;;38.28;14.38;;;;;;;-0.50;90.52;100913.84;6045604;23;20014;-85
2024/01/13 09:51:54;;;;;;;33.22;13.93;;;;;;;-0.49;90.68;100902.50;6092483;23;20442;-85
2024/01/13 09:54:22;;;;;;;32.20;13.57;;;;;;;-0.49;90.59;100898.13;6092768;23;20029;-86
2024/01/13 09:56:50;;;;;;;35.50;13.25;;;;;;;-0.47;90.34;100898.97;6091691;23;20101;-85
2024/01/13 09:59:18;;;;;;;32.20;13.48;;;;;;;-0.49;90.31;100895.53;6092251;23;20102;-84
2024/01/13 10:01:45;;;;;;;34.78;14.75;;;;;;;-0.45;90.41;100906.75;6067926;23;20024;-85
2024/01/13 10:04:12;;;;;;;32.60;13.38;;;;;;;-0.45;90.33;100897.19;6092679;23;20026;-84
2024/01/13 10:06:39;;;;;;;34.90;14.20;;;;;;;-0.44;90.29;100883.22;6091776;23;20050;-85
2024/01/13 10:09:07;;;;;;;29.05;12.82;;;;;;;-0.42;90.34;100872.75;6117354;23;20017;-85
2024/01/13 10:11:54;;;;;;;29.85;12.15;;;;;;;-0.41;90.14;100852.72;6050763;23;20026;-85
2024/01/13 10:14:22;;;;;;;33.38;13.15;;;;;;;-0.38;90.18;100848.31;6092327;23;20025;-85
2024/01/13 10:16:49;;;;;;;34.28;14.10;;;;;;;-0.41;90.43;100843.13;6117700;23;20070;-85
2024/01/13 10:19:16;;;;;;;33.13;14.55;;;;;;;-0.38;90.32;100837.88;6068891;23;20346;-85
2024/01/13 10:21:44;;;;;;;34.17;14.55;;;;;;;-0.36;90.30;100832.59;6091834;23;20026;-85
2024/01/13 10:24:11;;;;;;;29.45;13.82;;;;;;;-0.37;90.22;100823.06;6045323;23;20040;-84
2024/01/13 10:26:39;;;;;;;35.80;14.98;;;;;;;-0.34;90.15;100823.81;6092918;23;20040;-84
2024/01/13 10:29:06;;;;;;;28.00;12.82;;;;;;;-0.37;90.25;100829.13;6116796;23;20560;-84
2024/01/13 10:31:36;;;;;;;31.90;12.60;;;;;;;-0.34;90.16;100839.47;6115662;23;20029;-84
2024/01/13 10:34:11;;;;;;;30.83;14.40;;;;;;;-0.33;90.23;100841.19;6069339;23;20398;-85
2024/01/13 10:36:38;;;;;;;31.30;12.70;;;;;;;-0.30;90.37;100842.88;6116473;23;20030;-84
2024/01/13 10:39:07;;;;;;;32.85;13.32;;;;;;;-0.31;90.22;100830.69;6068735;23;20442;-85
2024/01/13 10:41:37;;;;;;;33.70;13.73;;;;;;;-0.31;90.21;100822.88;6091541;23;20141;-85
2024/01/13 10:44:07;;;;;;;31.33;13.02;;;;;;;-0.29;90.12;100810.63;6068223;23;20030;-85
2024/01/13 10:46:37;;;;;;;36.63;16.00;;;;;;;-0.29;90.22;100792.38;6092524;23;20463;-85
2024/01/13 10:49:21;;;;;;;33.75;13.75;;;;;;;-0.30;90.03;100757.59;6068176;23;20041;-85
2024/01/13 10:51:53;;;;;;;36.60;14.70;;;;;;;-0.28;89.99;100747.09;6115526;23;20029;-86
2024/01/13 10:54:20;;;;;;;32.03;14.65;;;;;;;-0.27;89.99;100731.41;6115352;23;20018;-85
2024/01/13 10:56:48;;;;;;;34.35;16.10;;;;;;;-0.24;89.62;100715.66;6090785;23;20024;-84
2024/01/13 10:59:15;;;;;;;29.83;14.00;;;;;;;-0.23;89.49;100709.53;6065219;23;20045;-85
2024/01/13 11:01:44;;;;;;;36.17;15.65;;;;;;;-0.22;89.46;100737.34;6089641;23;20025;-85
2024/01/13 11:04:11;;;;;;;36.00;13.73;;;;;;;-0.20;89.42;100732.09;6066568;23;20308;-85
2024/01/13 11:06:39;;;;;;;29.38;12.77;;;;;;;-0.17;89.41;100728.53;6068389;23;20089;-84
2024/01/13 11:09:07;;;;;;;29.95;12.00;;;;;;;-0.18;89.10;100753.75;6043081;23;20034;-84
2024/01/13 11:11:39;;;;;;;27.52;12.93;;;;;;;-0.20;89.23;100778.19;6066783;23;20462;-84
2024/01/13 11:14:14;;;;;;;24.42;11.18;;;;;;;-0.23;89.09;100781.75;6091459;23;20026;-84
2024/01/13 11:16:44;;;;;;;23.23;9.88;;;;;;;-0.22;89.10;100755.63;6090741;23;20517;-85